Conceicao dos Ouros, Brazil
Current Conditions -  °F | °C
As of 8:00 PM on Tuesday 27 Jan 2015 (Local Time) from SBGW Reporting Station
Rain Showers Rain Showers  
Wind Chill: 81°   Ceiling: 2500
Heat Index: 82°   Visibility: 6mi
Dew Point: 63°   Wind: 2mph
Humidity: 54%   Direction: NA
Pressure: NA   Gusts: NA
Location:  22.41°S, 45.8°W
Report Text: SBGW 272200Z VRB02KT 9999 VCSH BKN025 FEW030TCU SCT070 27/17 Q1016
Loading
Personal Weather Stations






























Interactive Weather Map New forecast layout! Learn more

10-Day Weather Forecast

Advertisements
Track Severe Weather on mobile